Rochefort, Belgium
Current Conditions -  °F | °C
As of 11:25 AM on Sunday 26 Oct 2014 (Local Time) from EBFS Reporting Station
Broken Clouds Broken Clouds  
Wind Chill: 12°   Ceiling: 4000
Heat Index: 12°   Visibility: 6mi
Dew Point: 10°   Wind: 8mph
Humidity: 88%   Direction: 170°S
Pressure: 30.27"   Gusts: NA
Location:  50.16°N, 5.22°E
Report Text: EBFS 260925Z 17007KT 9999 FEW010 BKN040 12/10 Q1025 BLU
Loading
Personal Weather Stations






























Interactive Weather Map
Tropical Storm Tracking
New forecast layout! Learn more

10-Day Weather Forecast

Advertisements
Track Severe Weather on mobile